sensor_id;sensor_type;location;lat;lon;timestamp;P1;durP1;ratioP1;P2;durP2;ratioP2
59239;SDS011;45010;53.640;10.578;2023-01-13T00:02:08;2.47;;;1.15;;
59239;SDS011;45010;53.640;10.578;2023-01-13T00:05:09;2.47;;;0.98;;
59239;SDS011;45010;53.640;10.578;2023-01-13T00:08:10;1.98;;;0.80;;
59239;SDS011;45010;53.640;10.578;2023-01-13T00:11:11;2.13;;;0.70;;
59239;SDS011;45010;53.640;10.578;2023-01-13T00:14:11;2.95;;;0.90;;
59239;SDS011;45010;53.640;10.578;2023-01-13T00:17:12;2.08;;;0.60;;
59239;SDS011;45010;53.640;10.578;2023-01-13T00:20:12;0.82;;;0.50;;
59239;SDS011;45010;53.640;10.578;2023-01-13T00:23:14;2.83;;;0.70;;
59239;SDS011;45010;53.640;10.578;2023-01-13T00:26:18;2.65;;;0.80;;
59239;SDS011;45010;53.640;10.578;2023-01-13T00:29:24;2.30;;;0.70;;
59239;SDS011;45010;53.640;10.578;2023-01-13T00:32:24;2.30;;;0.70;;
59239;SDS011;45010;53.640;10.578;2023-01-13T00:35:25;1.38;;;0.60;;
59239;SDS011;45010;53.640;10.578;2023-01-13T00:38:26;1.55;;;0.70;;
59239;SDS011;45010;53.640;10.578;2023-01-13T00:41:27;1.05;;;0.60;;
59239;SDS011;45010;53.640;10.578;2023-01-13T00:44:28;1.88;;;0.60;;
59239;SDS011;45010;53.640;10.578;2023-01-13T00:47:28;1.23;;;0.55;;
59239;SDS011;45010;53.640;10.578;2023-01-13T00:50:29;1.73;;;0.77;;
59239;SDS011;45010;53.640;10.578;2023-01-13T00:53:34;0.93;;;0.60;;
59239;SDS011;45010;53.640;10.578;2023-01-13T00:56:36;1.85;;;0.65;;
59239;SDS011;45010;53.640;10.578;2023-01-13T00:59:36;1.55;;;0.60;;
59239;SDS011;45010;53.640;10.578;2023-01-13T01:02:37;1.40;;;0.70;;
59239;SDS011;45010;53.640;10.578;2023-01-13T01:05:38;2.15;;;0.57;;
59239;SDS011;45010;53.640;10.578;2023-01-13T01:08:39;2.53;;;0.60;;
59239;SDS011;45010;53.640;10.578;2023-01-13T01:11:40;1.00;;;0.57;;
59239;SDS011;45010;53.640;10.578;2023-01-13T01:14:41;1.75;;;0.60;;
59239;SDS011;45010;53.640;10.578;2023-01-13T01:17:42;1.05;;;0.60;;
59239;SDS011;45010;53.640;10.578;2023-01-13T01:20:42;1.60;;;0.50;;
59239;SDS011;45010;53.640;10.578;2023-01-13T01:23:43;1.77;;;0.60;;
59239;SDS011;45010;53.640;10.578;2023-01-13T01:26:43;1.65;;;0.70;;
59239;SDS011;45010;53.640;10.578;2023-01-13T01:29:44;1.55;;;0.77;;
59239;SDS011;45010;53.640;10.578;2023-01-13T01:32:45;0.82;;;0.50;;
59239;SDS011;45010;53.640;10.578;2023-01-13T01:35:45;0.80;;;0.32;;
59239;SDS011;45010;53.640;10.578;2023-01-13T01:38:46;1.83;;;0.52;;
59239;SDS011;45010;53.640;10.578;2023-01-13T01:41:47;1.52;;;0.60;;
59239;SDS011;45010;53.640;10.578;2023-01-13T01:45:19;2.28;;;0.70;;
59239;SDS011;45010;53.640;10.578;2023-01-13T01:48:21;1.05;;;0.47;;
59239;SDS011;45010;53.640;10.578;2023-01-13T01:51:21;2.05;;;0.45;;
59239;SDS011;45010;53.640;10.578;2023-01-13T01:54:23;1.73;;;0.52;;
59239;SDS011;45010;53.640;10.578;2023-01-13T01:57:41;2.08;;;0.47;;
59239;SDS011;45010;53.640;10.578;2023-01-13T02:00:47;1.73;;;0.73;;
59239;SDS011;45010;53.640;10.578;2023-01-13T02:03:53;1.45;;;0.50;;
59239;SDS011;45010;53.640;10.578;2023-01-13T02:06:57;1.02;;;0.50;;
59239;SDS011;45010;53.640;10.578;2023-01-13T02:09:58;1.10;;;0.43;;
59239;SDS011;45010;53.640;10.578;2023-01-13T02:13:05;0.85;;;0.50;;
59239;SDS011;45010;53.640;10.578;2023-01-13T02:16:13;1.45;;;0.50;;
59239;SDS011;45010;53.640;10.578;2023-01-13T02:23:29;1.08;;;0.40;;
59239;SDS011;45010;53.640;10.578;2023-01-13T02:34:01;1.33;;;0.60;;
59239;SDS011;45010;53.640;10.578;2023-01-13T02:43:39;1.00;;;0.60;;
59239;SDS011;45010;53.640;10.578;2023-01-13T02:47:07;1.67;;;0.60;;
59239;SDS011;45010;53.640;10.578;2023-01-13T02:50:18;1.15;;;0.50;;
59239;SDS011;45010;53.640;10.578;2023-01-13T02:53:26;1.35;;;0.50;;
59239;SDS011;45010;53.640;10.578;2023-01-13T02:56:42;1.90;;;0.77;;
59239;SDS011;45010;53.640;10.578;2023-01-13T02:59:45;1.95;;;0.30;;
59239;SDS011;45010;53.640;10.578;2023-01-13T03:02:47;1.85;;;0.57;;
59239;SDS011;45010;53.640;10.578;2023-01-13T03:05:49;1.52;;;0.70;;
59239;SDS011;45010;53.640;10.578;2023-01-13T03:12:49;1.42;;;0.90;;
59239;SDS011;45010;53.640;10.578;2023-01-13T03:16:21;1.70;;;0.60;;
59239;SDS011;45010;53.640;10.578;2023-01-13T03:19:35;1.02;;;0.60;;
59239;SDS011;45010;53.640;10.578;2023-01-13T03:29:13;0.70;;;0.30;;
59239;SDS011;45010;53.640;10.578;2023-01-13T03:35:44;1.55;;;0.65;;
59239;SDS011;45010;53.640;10.578;2023-01-13T03:38:52;1.25;;;0.40;;
59239;SDS011;45010;53.640;10.578;2023-01-13T03:42:00;1.08;;;0.30;;
59239;SDS011;45010;53.640;10.578;2023-01-13T03:45:23;3.22;;;0.70;;
59239;SDS011;45010;53.640;10.578;2023-01-13T03:48:24;1.88;;;0.60;;
59239;SDS011;45010;53.640;10.578;2023-01-13T03:51:27;1.67;;;0.52;;
59239;SDS011;45010;53.640;10.578;2023-01-13T03:54:31;1.10;;;0.50;;
59239;SDS011;45010;53.640;10.578;2023-01-13T03:57:38;1.27;;;0.40;;
59239;SDS011;45010;53.640;10.578;2023-01-13T04:00:47;1.33;;;0.40;;
59239;SDS011;45010;53.640;10.578;2023-01-13T04:07:12;1.27;;;0.52;;
59239;SDS011;45010;53.640;10.578;2023-01-13T04:10:22;1.95;;;0.75;;
59239;SDS011;45010;53.640;10.578;2023-01-13T04:13:29;0.93;;;0.40;;
59239;SDS011;45010;53.640;10.578;2023-01-13T04:16:35;1.38;;;0.60;;
59239;SDS011;45010;53.640;10.578;2023-01-13T04:19:35;0.93;;;0.50;;
59239;SDS011;45010;53.640;10.578;2023-01-13T04:22:37;1.08;;;0.52;;
59239;SDS011;45010;53.640;10.578;2023-01-13T04:25:38;1.15;;;0.50;;
59239;SDS011;45010;53.640;10.578;2023-01-13T04:28:40;1.48;;;0.65;;
59239;SDS011;45010;53.640;10.578;2023-01-13T04:31:40;1.13;;;0.70;;
59239;SDS011;45010;53.640;10.578;2023-01-13T04:34:41;1.30;;;0.40;;
59239;SDS011;45010;53.640;10.578;2023-01-13T04:37:42;1.92;;;0.60;;
59239;SDS011;45010;53.640;10.578;2023-01-13T04:40:42;2.50;;;0.90;;
59239;SDS011;45010;53.640;10.578;2023-01-13T04:43:43;3.05;;;0.70;;
59239;SDS011;45010;53.640;10.578;2023-01-13T04:46:44;1.55;;;0.50;;
59239;SDS011;45010;53.640;10.578;2023-01-13T04:49:44;2.65;;;0.50;;
59239;SDS011;45010;53.640;10.578;2023-01-13T04:52:46;1.73;;;0.60;;
59239;SDS011;45010;53.640;10.578;2023-01-13T04:55:46;1.08;;;0.68;;
59239;SDS011;45010;53.640;10.578;2023-01-13T04:58:48;1.35;;;0.60;;
59239;SDS011;45010;53.640;10.578;2023-01-13T05:01:49;1.70;;;0.60;;
59239;SDS011;45010;53.640;10.578;2023-01-13T05:04:49;1.58;;;0.68;;
59239;SDS011;45010;53.640;10.578;2023-01-13T05:07:50;1.77;;;0.90;;
59239;SDS011;45010;53.640;10.578;2023-01-13T05:10:51;4.05;;;0.68;;
59239;SDS011;45010;53.640;10.578;2023-01-13T05:13:51;1.58;;;0.60;;
59239;SDS011;45010;53.640;10.578;2023-01-13T05:17:12;1.85;;;0.70;;
59239;SDS011;45010;53.640;10.578;2023-01-13T05:20:20;1.38;;;0.65;;
59239;SDS011;45010;53.640;10.578;2023-01-13T05:23:20;1.30;;;0.50;;
59239;SDS011;45010;53.640;10.578;2023-01-13T05:26:39;1.27;;;0.57;;
59239;SDS011;45010;53.640;10.578;2023-01-13T05:29:40;2.22;;;0.60;;
59239;SDS011;45010;53.640;10.578;2023-01-13T05:32:41;1.38;;;0.60;;
59239;SDS011;45010;53.640;10.578;2023-01-13T05:35:42;1.65;;;0.60;;
59239;SDS011;45010;53.640;10.578;2023-01-13T05:38:44;2.13;;;0.85;;
59239;SDS011;45010;53.640;10.578;2023-01-13T05:41:45;2.13;;;0.55;;
59239;SDS011;45010;53.640;10.578;2023-01-13T05:45:04;1.77;;;0.70;;
59239;SDS011;45010;53.640;10.578;2023-01-13T05:48:05;1.10;;;0.50;;
59239;SDS011;45010;53.640;10.578;2023-01-13T05:51:06;2.33;;;0.65;;
59239;SDS011;45010;53.640;10.578;2023-01-13T05:54:08;1.02;;;0.60;;
59239;SDS011;45010;53.640;10.578;2023-01-13T05:57:09;1.40;;;0.70;;
59239;SDS011;45010;53.640;10.578;2023-01-13T06:00:09;1.83;;;0.55;;
59239;SDS011;45010;53.640;10.578;2023-01-13T06:03:10;1.52;;;0.40;;
59239;SDS011;45010;53.640;10.578;2023-01-13T06:06:11;1.20;;;0.70;;
59239;SDS011;45010;53.640;10.578;2023-01-13T06:09:12;1.95;;;1.02;;
59239;SDS011;45010;53.640;10.578;2023-01-13T06:12:12;1.30;;;0.57;;
59239;SDS011;45010;53.640;10.578;2023-01-13T06:15:13;2.65;;;0.90;;
59239;SDS011;45010;53.640;10.578;2023-01-13T06:18:14;0.80;;;0.40;;
59239;SDS011;45010;53.640;10.578;2023-01-13T06:21:14;1.50;;;0.60;;
59239;SDS011;45010;53.640;10.578;2023-01-13T06:24:15;1.48;;;0.50;;
59239;SDS011;45010;53.640;10.578;2023-01-13T06:27:16;2.55;;;0.70;;
59239;SDS011;45010;53.640;10.578;2023-01-13T06:30:17;1.48;;;0.73;;
59239;SDS011;45010;53.640;10.578;2023-01-13T06:33:19;1.90;;;0.60;;
59239;SDS011;45010;53.640;10.578;2023-01-13T06:36:24;1.13;;;0.50;;
59239;SDS011;45010;53.640;10.578;2023-01-13T06:39:31;1.45;;;0.68;;
59239;SDS011;45010;53.640;10.578;2023-01-13T06:42:35;2.47;;;0.60;;
59239;SDS011;45010;53.640;10.578;2023-01-13T06:45:55;1.45;;;0.70;;
59239;SDS011;45010;53.640;10.578;2023-01-13T06:48:56;1.45;;;0.60;;
59239;SDS011;45010;53.640;10.578;2023-01-13T06:51:56;2.05;;;0.80;;
59239;SDS011;45010;53.640;10.578;2023-01-13T06:54:57;1.05;;;0.30;;
59239;SDS011;45010;53.640;10.578;2023-01-13T06:57:57;2.65;;;0.50;;
59239;SDS011;45010;53.640;10.578;2023-01-13T07:00:58;1.45;;;0.65;;
59239;SDS011;45010;53.640;10.578;2023-01-13T07:03:59;2.38;;;0.60;;
59239;SDS011;45010;53.640;10.578;2023-01-13T07:07:00;2.13;;;0.70;;
59239;SDS011;45010;53.640;10.578;2023-01-13T07:10:00;1.85;;;0.65;;
59239;SDS011;45010;53.640;10.578;2023-01-13T07:13:01;1.33;;;0.50;;
59239;SDS011;45010;53.640;10.578;2023-01-13T07:16:22;1.13;;;0.70;;
59239;SDS011;45010;53.640;10.578;2023-01-13T07:19:23;1.10;;;0.60;;
59239;SDS011;45010;53.640;10.578;2023-01-13T07:22:23;2.92;;;0.70;;
59239;SDS011;45010;53.640;10.578;2023-01-13T07:25:24;1.42;;;0.57;;
59239;SDS011;45010;53.640;10.578;2023-01-13T07:28:25;2.65;;;0.80;;
59239;SDS011;45010;53.640;10.578;2023-01-13T07:31:27;2.72;;;0.85;;
59239;SDS011;45010;53.640;10.578;2023-01-13T07:34:27;3.33;;;0.50;;
59239;SDS011;45010;53.640;10.578;2023-01-13T07:37:28;1.58;;;0.50;;
59239;SDS011;45010;53.640;10.578;2023-01-13T07:40:28;2.15;;;0.60;;
59239;SDS011;45010;53.640;10.578;2023-01-13T07:43:29;1.88;;;0.60;;
59239;SDS011;45010;53.640;10.578;2023-01-13T07:46:32;2.95;;;0.90;;
59239;SDS011;45010;53.640;10.578;2023-01-13T07:49:33;2.17;;;0.60;;
59239;SDS011;45010;53.640;10.578;2023-01-13T07:52:33;2.45;;;0.88;;
59239;SDS011;45010;53.640;10.578;2023-01-13T07:55:34;2.15;;;0.70;;
59239;SDS011;45010;53.640;10.578;2023-01-13T07:58:34;2.80;;;1.05;;
59239;SDS011;45010;53.640;10.578;2023-01-13T08:01:35;2.92;;;1.00;;
59239;SDS011;45010;53.640;10.578;2023-01-13T08:04:36;1.95;;;0.82;;
59239;SDS011;45010;53.640;10.578;2023-01-13T08:07:37;4.32;;;1.00;;
59239;SDS011;45010;53.640;10.578;2023-01-13T08:10:37;3.63;;;0.70;;
59239;SDS011;45010;53.640;10.578;2023-01-13T08:13:38;2.92;;;0.90;;
59239;SDS011;45010;53.640;10.578;2023-01-13T08:16:38;3.10;;;0.77;;
59239;SDS011;45010;53.640;10.578;2023-01-13T08:19:39;3.35;;;0.90;;
59239;SDS011;45010;53.640;10.578;2023-01-13T08:22:39;16.98;;;1.60;;
59239;SDS011;45010;53.640;10.578;2023-01-13T08:25:40;2.17;;;0.60;;
59239;SDS011;45010;53.640;10.578;2023-01-13T08:28:40;2.55;;;1.10;;
59239;SDS011;45010;53.640;10.578;2023-01-13T08:31:41;4.15;;;0.80;;
59239;SDS011;45010;53.640;10.578;2023-01-13T08:34:41;1.63;;;0.80;;
59239;SDS011;45010;53.640;10.578;2023-01-13T08:37:42;2.25;;;0.80;;
59239;SDS011;45010;53.640;10.578;2023-01-13T08:40:44;2.78;;;0.70;;
59239;SDS011;45010;53.640;10.578;2023-01-13T08:43:44;3.03;;;0.90;;
59239;SDS011;45010;53.640;10.578;2023-01-13T08:46:45;3.50;;;0.80;;
59239;SDS011;45010;53.640;10.578;2023-01-13T08:49:45;1.70;;;0.80;;
59239;SDS011;45010;53.640;10.578;2023-01-13T08:52:46;2.72;;;1.08;;
59239;SDS011;45010;53.640;10.578;2023-01-13T08:55:46;2.53;;;0.55;;
59239;SDS011;45010;53.640;10.578;2023-01-13T08:58:47;1.90;;;0.95;;
59239;SDS011;45010;53.640;10.578;2023-01-13T09:01:47;3.05;;;1.20;;
59239;SDS011;45010;53.640;10.578;2023-01-13T09:04:48;2.95;;;0.90;;
59239;SDS011;45010;53.640;10.578;2023-01-13T09:07:49;3.55;;;0.80;;
59239;SDS011;45010;53.640;10.578;2023-01-13T09:10:50;2.38;;;0.85;;
59239;SDS011;45010;53.640;10.578;2023-01-13T09:13:50;2.58;;;0.70;;
59239;SDS011;45010;53.640;10.578;2023-01-13T09:16:51;3.25;;;1.20;;
59239;SDS011;45010;53.640;10.578;2023-01-13T09:19:52;3.17;;;0.85;;
59239;SDS011;45010;53.640;10.578;2023-01-13T09:22:52;2.65;;;0.70;;
59239;SDS011;45010;53.640;10.578;2023-01-13T09:25:53;11.60;;;1.42;;
59239;SDS011;45010;53.640;10.578;2023-01-13T09:28:53;3.08;;;1.13;;
59239;SDS011;45010;53.640;10.578;2023-01-13T09:31:54;4.15;;;1.58;;
59239;SDS011;45010;53.640;10.578;2023-01-13T09:34:57;3.63;;;1.10;;
59239;SDS011;45010;53.640;10.578;2023-01-13T09:38:00;4.70;;;1.77;;
59239;SDS011;45010;53.640;10.578;2023-01-13T09:41:00;4.07;;;1.13;;
59239;SDS011;45010;53.640;10.578;2023-01-13T09:44:23;3.58;;;1.42;;
59239;SDS011;45010;53.640;10.578;2023-01-13T09:47:32;4.85;;;1.20;;
59239;SDS011;45010;53.640;10.578;2023-01-13T09:53:54;4.20;;;1.30;;
59239;SDS011;45010;53.640;10.578;2023-01-13T09:56:59;4.90;;;1.20;;
59239;SDS011;45010;53.640;10.578;2023-01-13T10:00:00;3.47;;;1.35;;
59239;SDS011;45010;53.640;10.578;2023-01-13T10:03:07;5.05;;;1.38;;
59239;SDS011;45010;53.640;10.578;2023-01-13T10:09:43;5.43;;;1.80;;
59239;SDS011;45010;53.640;10.578;2023-01-13T10:12:49;4.57;;;1.13;;
59239;SDS011;45010;53.640;10.578;2023-01-13T10:19:25;5.25;;;1.90;;
59239;SDS011;45010;53.640;10.578;2023-01-13T10:25:55;10.63;;;2.35;;
59239;SDS011;45010;53.640;10.578;2023-01-13T10:29:16;6.50;;;1.90;;
59239;SDS011;45010;53.640;10.578;2023-01-13T10:32:27;6.60;;;2.10;;
59239;SDS011;45010;53.640;10.578;2023-01-13T10:39:07;4.45;;;1.60;;
59239;SDS011;45010;53.640;10.578;2023-01-13T10:42:14;5.70;;;2.30;;
59239;SDS011;45010;53.640;10.578;2023-01-13T10:45:23;5.15;;;1.90;;
59239;SDS011;45010;53.640;10.578;2023-01-13T10:48:32;7.57;;;2.40;;
59239;SDS011;45010;53.640;10.578;2023-01-13T10:54:37;5.38;;;2.45;;
59239;SDS011;45010;53.640;10.578;2023-01-13T10:57:50;4.38;;;2.42;;
59239;SDS011;45010;53.640;10.578;2023-01-13T11:00:57;3.25;;;1.92;;
59239;SDS011;45010;53.640;10.578;2023-01-13T11:03:59;4.35;;;2.38;;
59239;SDS011;45010;53.640;10.578;2023-01-13T11:07:00;7.00;;;2.15;;
59239;SDS011;45010;53.640;10.578;2023-01-13T11:10:25;3.75;;;2.30;;
59239;SDS011;45010;53.640;10.578;2023-01-13T11:17:09;4.10;;;2.45;;
59239;SDS011;45010;53.640;10.578;2023-01-13T11:20:19;4.13;;;2.30;;
59239;SDS011;45010;53.640;10.578;2023-01-13T11:23:31;3.67;;;2.20;;
59239;SDS011;45010;53.640;10.578;2023-01-13T11:26:39;4.78;;;2.25;;
59239;SDS011;45010;53.640;10.578;2023-01-13T11:36:15;3.53;;;1.80;;
59239;SDS011;45010;53.640;10.578;2023-01-13T11:42:31;5.25;;;1.80;;
59239;SDS011;45010;53.640;10.578;2023-01-13T11:45:50;4.25;;;1.90;;
59239;SDS011;45010;53.640;10.578;2023-01-13T11:48:53;5.57;;;1.70;;
59239;SDS011;45010;53.640;10.578;2023-01-13T11:51:59;4.40;;;1.98;;
59239;SDS011;45010;53.640;10.578;2023-01-13T11:55:25;3.65;;;1.70;;
59239;SDS011;45010;53.640;10.578;2023-01-13T11:58:59;3.30;;;2.05;;
59239;SDS011;45010;53.640;10.578;2023-01-13T12:02:15;4.55;;;1.60;;
59239;SDS011;45010;53.640;10.578;2023-01-13T12:05:35;3.85;;;1.50;;
59239;SDS011;45010;53.640;10.578;2023-01-13T12:12:34;7.80;;;1.92;;
59239;SDS011;45010;53.640;10.578;2023-01-13T12:22:32;5.03;;;2.05;;
59239;SDS011;45010;53.640;10.578;2023-01-13T12:28:36;6.40;;;1.67;;
59239;SDS011;45010;53.640;10.578;2023-01-13T12:31:42;5.13;;;1.65;;
59239;SDS011;45010;53.640;10.578;2023-01-13T12:35:05;5.10;;;1.52;;
59239;SDS011;45010;53.640;10.578;2023-01-13T12:38:39;5.38;;;1.42;;
59239;SDS011;45010;53.640;10.578;2023-01-13T12:41:56;2.53;;;1.38;;
59239;SDS011;45010;53.640;10.578;2023-01-13T12:45:21;4.18;;;1.73;;
59239;SDS011;45010;53.640;10.578;2023-01-13T12:48:43;5.38;;;1.67;;
59239;SDS011;45010;53.640;10.578;2023-01-13T13:01:09;3.60;;;1.40;;
59239;SDS011;45010;53.640;10.578;2023-01-13T13:04:13;3.92;;;1.27;;
59239;SDS011;45010;53.640;10.578;2023-01-13T13:07:21;3.38;;;1.60;;
59239;SDS011;45010;53.640;10.578;2023-01-13T13:10:30;5.18;;;1.35;;
59239;SDS011;45010;53.640;10.578;2023-01-13T13:13:52;2.88;;;1.17;;
59239;SDS011;45010;53.640;10.578;2023-01-13T13:16:53;3.78;;;1.60;;
59239;SDS011;45010;53.640;10.578;2023-01-13T13:19:57;6.40;;;1.55;;
59239;SDS011;45010;53.640;10.578;2023-01-13T13:22:59;3.90;;;1.10;;
59239;SDS011;45010;53.640;10.578;2023-01-13T13:26:22;6.78;;;1.65;;
59239;SDS011;45010;53.640;10.578;2023-01-13T13:29:41;5.03;;;1.88;;
59239;SDS011;45010;53.640;10.578;2023-01-13T13:42:46;6.03;;;1.98;;
59239;SDS011;45010;53.640;10.578;2023-01-13T13:46:29;5.45;;;1.88;;
59239;SDS011;45010;53.640;10.578;2023-01-13T13:49:47;4.40;;;1.45;;
59239;SDS011;45010;53.640;10.578;2023-01-13T13:53:00;5.30;;;1.50;;
59239;SDS011;45010;53.640;10.578;2023-01-13T13:56:05;4.70;;;1.52;;
59239;SDS011;45010;53.640;10.578;2023-01-13T13:59:23;5.20;;;2.03;;
59239;SDS011;45010;53.640;10.578;2023-01-13T14:02:29;5.10;;;1.40;;
59239;SDS011;45010;53.640;10.578;2023-01-13T14:05:34;6.80;;;1.70;;
59239;SDS011;45010;53.640;10.578;2023-01-13T14:08:37;5.57;;;1.55;;
59239;SDS011;45010;53.640;10.578;2023-01-13T14:11:39;9.75;;;1.67;;
59239;SDS011;45010;53.640;10.578;2023-01-13T14:14:43;10.13;;;1.90;;
59239;SDS011;45010;53.640;10.578;2023-01-13T14:17:45;6.22;;;1.85;;
59239;SDS011;45010;53.640;10.578;2023-01-13T14:20:53;11.95;;;1.88;;
59239;SDS011;45010;53.640;10.578;2023-01-13T14:23:58;5.22;;;1.48;;
59239;SDS011;45010;53.640;10.578;2023-01-13T14:27:08;2.75;;;1.08;;
59239;SDS011;45010;53.640;10.578;2023-01-13T14:30:14;5.50;;;1.42;;
59239;SDS011;45010;53.640;10.578;2023-01-13T14:33:18;5.20;;;1.60;;
59239;SDS011;45010;53.640;10.578;2023-01-13T14:36:56;4.38;;;1.52;;
59239;SDS011;45010;53.640;10.578;2023-01-13T14:39:50;3.92;;;1.33;;
59239;SDS011;45010;53.640;10.578;2023-01-13T14:43:00;5.82;;;1.52;;
59239;SDS011;45010;53.640;10.578;2023-01-13T14:46:02;4.93;;;1.65;;
59239;SDS011;45010;53.640;10.578;2023-01-13T14:49:03;5.57;;;2.10;;
59239;SDS011;45010;53.640;10.578;2023-01-13T14:52:18;5.30;;;1.88;;
59239;SDS011;45010;53.640;10.578;2023-01-13T14:55:26;5.70;;;1.52;;
59239;SDS011;45010;53.640;10.578;2023-01-13T14:58:27;4.38;;;1.40;;
59239;SDS011;45010;53.640;10.578;2023-01-13T15:01:28;3.45;;;1.30;;
59239;SDS011;45010;53.640;10.578;2023-01-13T15:04:35;4.35;;;1.35;;
59239;SDS011;45010;53.640;10.578;2023-01-13T15:07:37;5.55;;;1.30;;
59239;SDS011;45010;53.640;10.578;2023-01-13T15:10:48;4.50;;;1.30;;
59239;SDS011;45010;53.640;10.578;2023-01-13T15:13:59;3.42;;;1.52;;
59239;SDS011;45010;53.640;10.578;2023-01-13T15:17:00;5.07;;;1.63;;
59239;SDS011;45010;53.640;10.578;2023-01-13T15:20:02;1.85;;;1.30;;
59239;SDS011;45010;53.640;10.578;2023-01-13T15:23:02;4.38;;;1.63;;
59239;SDS011;45010;53.640;10.578;2023-01-13T15:26:05;3.53;;;1.50;;
59239;SDS011;45010;53.640;10.578;2023-01-13T15:29:14;4.20;;;1.08;;
59239;SDS011;45010;53.640;10.578;2023-01-13T15:32:17;4.28;;;1.20;;
59239;SDS011;45010;53.640;10.578;2023-01-13T15:35:20;3.85;;;1.25;;
59239;SDS011;45010;53.640;10.578;2023-01-13T15:38:22;3.72;;;1.30;;
59239;SDS011;45010;53.640;10.578;2023-01-13T15:41:23;4.43;;;1.42;;
59239;SDS011;45010;53.640;10.578;2023-01-13T15:44:42;3.33;;;1.25;;
59239;SDS011;45010;53.640;10.578;2023-01-13T15:48:01;4.35;;;1.55;;
59239;SDS011;45010;53.640;10.578;2023-01-13T15:51:02;4.28;;;1.45;;
59239;SDS011;45010;53.640;10.578;2023-01-13T15:54:03;5.88;;;1.40;;
59239;SDS011;45010;53.640;10.578;2023-01-13T15:57:04;3.25;;;1.40;;
59239;SDS011;45010;53.640;10.578;2023-01-13T16:00:18;10.38;;;1.48;;
59239;SDS011;45010;53.640;10.578;2023-01-13T16:03:20;2.60;;;1.33;;
59239;SDS011;45010;53.640;10.578;2023-01-13T16:06:27;5.13;;;1.30;;
59239;SDS011;45010;53.640;10.578;2023-01-13T16:09:32;3.13;;;1.35;;
59239;SDS011;45010;53.640;10.578;2023-01-13T16:12:32;5.05;;;1.98;;
59239;SDS011;45010;53.640;10.578;2023-01-13T16:15:34;2.97;;;1.30;;
59239;SDS011;45010;53.640;10.578;2023-01-13T16:18:34;3.22;;;1.10;;
59239;SDS011;45010;53.640;10.578;2023-01-13T16:21:35;3.75;;;1.00;;
59239;SDS011;45010;53.640;10.578;2023-01-13T16:24:35;3.25;;;1.35;;
59239;SDS011;45010;53.640;10.578;2023-01-13T16:27:36;2.03;;;0.90;;
59239;SDS011;45010;53.640;10.578;2023-01-13T16:30:37;2.58;;;1.02;;
59239;SDS011;45010;53.640;10.578;2023-01-13T16:33:37;2.22;;;0.90;;
59239;SDS011;45010;53.640;10.578;2023-01-13T16:36:38;4.13;;;1.17;;
59239;SDS011;45010;53.640;10.578;2023-01-13T16:39:38;2.22;;;0.80;;
59239;SDS011;45010;53.640;10.578;2023-01-13T16:42:39;2.88;;;1.10;;
59239;SDS011;45010;53.640;10.578;2023-01-13T16:45:39;1.60;;;0.68;;
59239;SDS011;45010;53.640;10.578;2023-01-13T16:48:41;3.08;;;1.02;;
59239;SDS011;45010;53.640;10.578;2023-01-13T16:51:41;3.22;;;1.10;;
59239;SDS011;45010;53.640;10.578;2023-01-13T16:54:42;1.48;;;0.77;;
59239;SDS011;45010;53.640;10.578;2023-01-13T16:57:43;2.97;;;0.98;;
59239;SDS011;45010;53.640;10.578;2023-01-13T17:00:44;3.30;;;1.15;;
59239;SDS011;45010;53.640;10.578;2023-01-13T17:03:46;2.83;;;1.17;;
59239;SDS011;45010;53.640;10.578;2023-01-13T17:06:52;3.08;;;0.80;;
59239;SDS011;45010;53.640;10.578;2023-01-13T17:09:56;2.35;;;1.10;;
59239;SDS011;45010;53.640;10.578;2023-01-13T17:12:56;3.25;;;0.90;;
59239;SDS011;45010;53.640;10.578;2023-01-13T17:15:57;1.48;;;0.88;;
59239;SDS011;45010;53.640;10.578;2023-01-13T17:18:57;4.53;;;1.10;;
59239;SDS011;45010;53.640;10.578;2023-01-13T17:21:58;2.95;;;1.00;;
59239;SDS011;45010;53.640;10.578;2023-01-13T17:24:59;2.83;;;0.88;;
59239;SDS011;45010;53.640;10.578;2023-01-13T17:27:59;1.65;;;0.80;;
59239;SDS011;45010;53.640;10.578;2023-01-13T17:31:00;2.20;;;0.90;;
59239;SDS011;45010;53.640;10.578;2023-01-13T17:34:00;2.05;;;0.90;;
59239;SDS011;45010;53.640;10.578;2023-01-13T17:37:01;1.98;;;1.10;;
59239;SDS011;45010;53.640;10.578;2023-01-13T17:40:02;2.40;;;0.93;;
59239;SDS011;45010;53.640;10.578;2023-01-13T17:43:03;1.25;;;0.70;;
59239;SDS011;45010;53.640;10.578;2023-01-13T17:46:07;1.95;;;1.10;;
59239;SDS011;45010;53.640;10.578;2023-01-13T17:49:12;1.90;;;0.80;;
59239;SDS011;45010;53.640;10.578;2023-01-13T17:52:13;2.20;;;1.08;;
59239;SDS011;45010;53.640;10.578;2023-01-13T17:55:14;2.58;;;0.60;;
59239;SDS011;45010;53.640;10.578;2023-01-13T17:58:15;1.45;;;0.63;;
59239;SDS011;45010;53.640;10.578;2023-01-13T18:01:16;2.47;;;0.82;;
59239;SDS011;45010;53.640;10.578;2023-01-13T18:04:19;3.33;;;0.93;;
59239;SDS011;45010;53.640;10.578;2023-01-13T18:07:21;1.90;;;0.88;;
59239;SDS011;45010;53.640;10.578;2023-01-13T18:10:22;2.53;;;0.80;;
59239;SDS011;45010;53.640;10.578;2023-01-13T18:13:22;1.90;;;0.60;;
59239;SDS011;45010;53.640;10.578;2023-01-13T18:16:23;2.17;;;0.70;;
59239;SDS011;45010;53.640;10.578;2023-01-13T18:19:25;2.13;;;0.75;;
59239;SDS011;45010;53.640;10.578;2023-01-13T18:22:44;1.35;;;0.68;;
59239;SDS011;45010;53.640;10.578;2023-01-13T18:26:36;1.88;;;0.80;;
59239;SDS011;45010;53.640;10.578;2023-01-13T18:29:49;2.17;;;0.65;;
59239;SDS011;45010;53.640;10.578;2023-01-13T18:32:56;2.08;;;0.73;;
59239;SDS011;45010;53.640;10.578;2023-01-13T18:35:57;1.33;;;0.70;;
59239;SDS011;45010;53.640;10.578;2023-01-13T18:38:57;0.98;;;0.50;;
59239;SDS011;45010;53.640;10.578;2023-01-13T18:41:58;2.20;;;0.88;;
59239;SDS011;45010;53.640;10.578;2023-01-13T18:48:28;1.73;;;1.00;;
59239;SDS011;45010;53.640;10.578;2023-01-13T18:51:30;1.10;;;0.70;;
59239;SDS011;45010;53.640;10.578;2023-01-13T18:54:30;1.58;;;0.70;;
59239;SDS011;45010;53.640;10.578;2023-01-13T18:57:31;1.85;;;0.80;;
59239;SDS011;45010;53.640;10.578;2023-01-13T19:00:31;1.83;;;0.70;;
59239;SDS011;45010;53.640;10.578;2023-01-13T19:03:35;1.67;;;0.60;;
59239;SDS011;45010;53.640;10.578;2023-01-13T19:06:38;1.02;;;0.52;;
59239;SDS011;45010;53.640;10.578;2023-01-13T19:09:38;2.30;;;0.82;;
59239;SDS011;45010;53.640;10.578;2023-01-13T19:12:41;1.45;;;0.60;;
59239;SDS011;45010;53.640;10.578;2023-01-13T19:15:42;1.15;;;0.60;;
59239;SDS011;45010;53.640;10.578;2023-01-13T19:18:43;0.85;;;0.60;;
59239;SDS011;45010;53.640;10.578;2023-01-13T19:21:43;1.33;;;0.60;;
59239;SDS011;45010;53.640;10.578;2023-01-13T19:24:44;1.52;;;0.77;;
59239;SDS011;45010;53.640;10.578;2023-01-13T19:27:45;1.08;;;0.50;;
59239;SDS011;45010;53.640;10.578;2023-01-13T19:30:46;1.33;;;0.68;;
59239;SDS011;45010;53.640;10.578;2023-01-13T19:33:46;1.63;;;0.70;;
59239;SDS011;45010;53.640;10.578;2023-01-13T19:36:47;2.70;;;0.70;;
59239;SDS011;45010;53.640;10.578;2023-01-13T19:39:50;1.48;;;0.70;;
59239;SDS011;45010;53.640;10.578;2023-01-13T19:42:51;1.25;;;0.70;;
59239;SDS011;45010;53.640;10.578;2023-01-13T19:46:10;1.35;;;0.65;;
59239;SDS011;45010;53.640;10.578;2023-01-13T19:49:11;1.63;;;0.80;;
59239;SDS011;45010;53.640;10.578;2023-01-13T19:52:12;1.13;;;0.60;;
59239;SDS011;45010;53.640;10.578;2023-01-13T19:55:12;1.15;;;0.63;;
59239;SDS011;45010;53.640;10.578;2023-01-13T19:58:13;1.67;;;0.63;;
59239;SDS011;45010;53.640;10.578;2023-01-13T20:01:14;1.63;;;0.85;;